sensor_id;sensor_type;location;lat;lon;timestamp;temperature;humidity
17687;DHT22;8962;52.538;13.266;2022-11-20T00:01:06;1.00;99.90
17687;DHT22;8962;52.538;13.266;2022-11-20T00:03:35;1.00;99.90
17687;DHT22;8962;52.538;13.266;2022-11-20T00:06:04;0.90;99.90
17687;DHT22;8962;52.538;13.266;2022-11-20T00:08:34;0.90;99.90
17687;DHT22;8962;52.538;13.266;2022-11-20T00:11:05;1.00;99.90
17687;DHT22;8962;52.538;13.266;2022-11-20T00:13:32;1.00;99.90
17687;DHT22;8962;52.538;13.266;2022-11-20T00:16:01;0.90;99.90
17687;DHT22;8962;52.538;13.266;2022-11-20T00:18:32;0.90;99.90
17687;DHT22;8962;52.538;13.266;2022-11-20T00:21:02;0.90;99.90
17687;DHT22;8962;52.538;13.266;2022-11-20T00:23:29;0.80;99.90
17687;DHT22;8962;52.538;13.266;2022-11-20T00:26:00;0.80;99.90
17687;DHT22;8962;52.538;13.266;2022-11-20T00:28:29;0.90;99.90
17687;DHT22;8962;52.538;13.266;2022-11-20T00:31:01;0.90;99.90
17687;DHT22;8962;52.538;13.266;2022-11-20T00:33:31;1.00;99.90
17687;DHT22;8962;52.538;13.266;2022-11-20T00:36:01;0.90;99.90
17687;DHT22;8962;52.538;13.266;2022-11-20T00:38:29;0.90;99.90
17687;DHT22;8962;52.538;13.266;2022-11-20T00:40:58;0.90;99.90
17687;DHT22;8962;52.538;13.266;2022-11-20T00:43:29;0.90;99.90
17687;DHT22;8962;52.538;13.266;2022-11-20T00:45:57;0.90;99.90
17687;DHT22;8962;52.538;13.266;2022-11-20T00:48:25;0.90;99.90
17687;DHT22;8962;52.538;13.266;2022-11-20T00:50:53;0.90;99.90
17687;DHT22;8962;52.538;13.266;2022-11-20T00:53:21;0.90;99.90
17687;DHT22;8962;52.538;13.266;2022-11-20T00:55:55;0.90;99.90
17687;DHT22;8962;52.538;13.266;2022-11-20T00:58:22;0.80;99.90
17687;DHT22;8962;52.538;13.266;2022-11-20T01:00:53;0.80;99.90
17687;DHT22;8962;52.538;13.266;2022-11-20T01:03:20;0.80;99.90
17687;DHT22;8962;52.538;13.266;2022-11-20T01:05:50;0.80;99.90
17687;DHT22;8962;52.538;13.266;2022-11-20T01:08:19;0.80;99.90
17687;DHT22;8962;52.538;13.266;2022-11-20T01:10:46;0.90;99.90
17687;DHT22;8962;52.538;13.266;2022-11-20T01:13:14;0.90;99.90
17687;DHT22;8962;52.538;13.266;2022-11-20T01:16:18;0.90;99.90
17687;DHT22;8962;52.538;13.266;2022-11-20T01:18:47;0.80;99.90
17687;DHT22;8962;52.538;13.266;2022-11-20T01:21:17;0.80;99.90
17687;DHT22;8962;52.538;13.266;2022-11-20T01:23:44;0.80;99.90
17687;DHT22;8962;52.538;13.266;2022-11-20T01:26:14;0.80;99.90
17687;DHT22;8962;52.538;13.266;2022-11-20T01:28:42;0.70;99.90
17687;DHT22;8962;52.538;13.266;2022-11-20T01:31:15;0.80;99.90
17687;DHT22;8962;52.538;13.266;2022-11-20T01:33:45;0.80;99.90
17687;DHT22;8962;52.538;13.266;2022-11-20T01:36:13;0.80;99.90
17687;DHT22;8962;52.538;13.266;2022-11-20T01:38:44;0.80;99.90
17687;DHT22;8962;52.538;13.266;2022-11-20T01:41:15;0.80;99.90
17687;DHT22;8962;52.538;13.266;2022-11-20T01:43:56;0.90;99.90
17687;DHT22;8962;52.538;13.266;2022-11-20T01:46:25;0.80;99.90
17687;DHT22;8962;52.538;13.266;2022-11-20T01:48:57;0.70;99.90
17687;DHT22;8962;52.538;13.266;2022-11-20T01:51:32;0.70;99.90
17687;DHT22;8962;52.538;13.266;2022-11-20T01:54:04;0.70;99.90
17687;DHT22;8962;52.538;13.266;2022-11-20T01:56:37;0.70;99.90
17687;DHT22;8962;52.538;13.266;2022-11-20T01:59:08;0.70;99.90
17687;DHT22;8962;52.538;13.266;2022-11-20T02:01:39;0.70;99.90
17687;DHT22;8962;52.538;13.266;2022-11-20T02:04:09;0.60;99.90
17687;DHT22;8962;52.538;13.266;2022-11-20T02:06:41;0.60;99.90
17687;DHT22;8962;52.538;13.266;2022-11-20T02:09:11;0.70;99.90
17687;DHT22;8962;52.538;13.266;2022-11-20T02:11:38;0.60;99.90
17687;DHT22;8962;52.538;13.266;2022-11-20T02:14:06;0.50;99.90
17687;DHT22;8962;52.538;13.266;2022-11-20T02:16:35;0.50;99.90
17687;DHT22;8962;52.538;13.266;2022-11-20T02:19:08;0.60;99.90
17687;DHT22;8962;52.538;13.266;2022-11-20T02:21:45;0.50;99.90
17687;DHT22;8962;52.538;13.266;2022-11-20T02:24:17;0.50;99.90
17687;DHT22;8962;52.538;13.266;2022-11-20T02:26:50;0.50;99.90
17687;DHT22;8962;52.538;13.266;2022-11-20T02:29:23;0.50;99.90
17687;DHT22;8962;52.538;13.266;2022-11-20T02:31:51;0.50;99.90
17687;DHT22;8962;52.538;13.266;2022-11-20T02:34:20;0.50;99.90
17687;DHT22;8962;52.538;13.266;2022-11-20T02:36:48;0.50;99.90
17687;DHT22;8962;52.538;13.266;2022-11-20T02:39:19;0.50;99.90
17687;DHT22;8962;52.538;13.266;2022-11-20T02:41:47;0.40;99.90
17687;DHT22;8962;52.538;13.266;2022-11-20T02:44:16;0.40;99.90
17687;DHT22;8962;52.538;13.266;2022-11-20T02:46:43;0.40;99.90
17687;DHT22;8962;52.538;13.266;2022-11-20T02:49:10;0.50;99.90
17687;DHT22;8962;52.538;13.266;2022-11-20T02:51:37;0.40;99.90
17687;DHT22;8962;52.538;13.266;2022-11-20T02:54:04;0.40;99.90
17687;DHT22;8962;52.538;13.266;2022-11-20T02:56:33;0.30;99.90
17687;DHT22;8962;52.538;13.266;2022-11-20T02:59:00;0.40;99.90
17687;DHT22;8962;52.538;13.266;2022-11-20T03:01:27;0.30;99.90
17687;DHT22;8962;52.538;13.266;2022-11-20T03:03:55;0.40;99.90
17687;DHT22;8962;52.538;13.266;2022-11-20T03:06:23;0.40;99.90
17687;DHT22;8962;52.538;13.266;2022-11-20T03:08:50;0.50;99.90
17687;DHT22;8962;52.538;13.266;2022-11-20T03:11:17;0.50;99.90
17687;DHT22;8962;52.538;13.266;2022-11-20T03:13:47;0.50;99.90
17687;DHT22;8962;52.538;13.266;2022-11-20T03:16:16;0.40;99.90
17687;DHT22;8962;52.538;13.266;2022-11-20T03:18:44;0.50;99.90
17687;DHT22;8962;52.538;13.266;2022-11-20T03:21:12;0.50;99.90
17687;DHT22;8962;52.538;13.266;2022-11-20T03:23:40;0.50;99.90
17687;DHT22;8962;52.538;13.266;2022-11-20T03:26:12;0.60;99.90
17687;DHT22;8962;52.538;13.266;2022-11-20T03:28:39;0.60;99.90
17687;DHT22;8962;52.538;13.266;2022-11-20T03:31:11;0.60;99.90
17687;DHT22;8962;52.538;13.266;2022-11-20T03:33:41;0.60;99.90
17687;DHT22;8962;52.538;13.266;2022-11-20T03:36:12;0.50;99.90
17687;DHT22;8962;52.538;13.266;2022-11-20T03:38:39;0.50;99.90
17687;DHT22;8962;52.538;13.266;2022-11-20T03:41:09;0.60;99.90
17687;DHT22;8962;52.538;13.266;2022-11-20T03:43:38;0.60;99.90
17687;DHT22;8962;52.538;13.266;2022-11-20T03:46:08;0.60;99.90
17687;DHT22;8962;52.538;13.266;2022-11-20T03:48:36;0.60;99.90
17687;DHT22;8962;52.538;13.266;2022-11-20T03:51:08;0.60;99.90
17687;DHT22;8962;52.538;13.266;2022-11-20T03:53:35;0.60;99.90
17687;DHT22;8962;52.538;13.266;2022-11-20T03:56:03;0.60;99.90
17687;DHT22;8962;52.538;13.266;2022-11-20T03:58:30;0.50;99.90
17687;DHT22;8962;52.538;13.266;2022-11-20T04:00:58;0.60;99.90
17687;DHT22;8962;52.538;13.266;2022-11-20T04:03:27;0.60;99.90
17687;DHT22;8962;52.538;13.266;2022-11-20T04:06:02;0.50;99.90
17687;DHT22;8962;52.538;13.266;2022-11-20T04:08:29;0.40;99.90
17687;DHT22;8962;52.538;13.266;2022-11-20T04:10:56;0.40;99.90
17687;DHT22;8962;52.538;13.266;2022-11-20T04:13:23;0.30;99.90
17687;DHT22;8962;52.538;13.266;2022-11-20T04:15:50;0.20;99.90
17687;DHT22;8962;52.538;13.266;2022-11-20T04:18:18;0.30;99.90
17687;DHT22;8962;52.538;13.266;2022-11-20T04:20:48;0.30;99.90
17687;DHT22;8962;52.538;13.266;2022-11-20T04:23:16;0.40;99.90
17687;DHT22;8962;52.538;13.266;2022-11-20T04:25:43;0.40;99.90
17687;DHT22;8962;52.538;13.266;2022-11-20T04:28:10;0.40;99.90
17687;DHT22;8962;52.538;13.266;2022-11-20T04:30:39;0.40;99.90
17687;DHT22;8962;52.538;13.266;2022-11-20T04:33:06;0.40;99.90
17687;DHT22;8962;52.538;13.266;2022-11-20T04:35:34;0.50;99.90
17687;DHT22;8962;52.538;13.266;2022-11-20T04:38:03;0.60;99.90
17687;DHT22;8962;52.538;13.266;2022-11-20T04:40:31;0.50;99.90
17687;DHT22;8962;52.538;13.266;2022-11-20T04:42:59;0.60;99.90
17687;DHT22;8962;52.538;13.266;2022-11-20T04:45:26;0.60;99.90
17687;DHT22;8962;52.538;13.266;2022-11-20T04:47:53;0.70;99.90
17687;DHT22;8962;52.538;13.266;2022-11-20T04:50:20;0.70;99.90
17687;DHT22;8962;52.538;13.266;2022-11-20T04:52:47;0.70;99.90
17687;DHT22;8962;52.538;13.266;2022-11-20T04:55:18;0.60;99.90
17687;DHT22;8962;52.538;13.266;2022-11-20T04:57:45;0.70;99.90
17687;DHT22;8962;52.538;13.266;2022-11-20T05:00:14;0.70;99.90
17687;DHT22;8962;52.538;13.266;2022-11-20T05:02:41;0.70;99.90
17687;DHT22;8962;52.538;13.266;2022-11-20T05:05:08;0.70;99.90
17687;DHT22;8962;52.538;13.266;2022-11-20T05:07:36;0.70;99.90
17687;DHT22;8962;52.538;13.266;2022-11-20T05:10:04;0.80;99.90
17687;DHT22;8962;52.538;13.266;2022-11-20T05:12:33;0.70;99.90
17687;DHT22;8962;52.538;13.266;2022-11-20T05:15:00;0.70;99.90
17687;DHT22;8962;52.538;13.266;2022-11-20T05:17:28;0.80;99.90
17687;DHT22;8962;52.538;13.266;2022-11-20T05:19:57;0.70;99.90
17687;DHT22;8962;52.538;13.266;2022-11-20T05:22:24;0.70;99.90
17687;DHT22;8962;52.538;13.266;2022-11-20T05:24:51;0.90;99.90
17687;DHT22;8962;52.538;13.266;2022-11-20T05:27:18;0.80;99.90
17687;DHT22;8962;52.538;13.266;2022-11-20T05:29:48;0.80;99.90
17687;DHT22;8962;52.538;13.266;2022-11-20T05:32:17;0.80;99.90
17687;DHT22;8962;52.538;13.266;2022-11-20T05:34:44;0.70;99.90
17687;DHT22;8962;52.538;13.266;2022-11-20T05:37:11;0.70;99.90
17687;DHT22;8962;52.538;13.266;2022-11-20T05:39:39;0.80;99.90
17687;DHT22;8962;52.538;13.266;2022-11-20T05:42:06;0.70;99.90
17687;DHT22;8962;52.538;13.266;2022-11-20T05:44:52;0.90;99.90
17687;DHT22;8962;52.538;13.266;2022-11-20T05:47:20;0.80;99.90
17687;DHT22;8962;52.538;13.266;2022-11-20T05:49:47;0.80;99.90
17687;DHT22;8962;52.538;13.266;2022-11-20T05:52:14;0.80;99.90
17687;DHT22;8962;52.538;13.266;2022-11-20T05:54:41;0.80;99.90
17687;DHT22;8962;52.538;13.266;2022-11-20T05:57:10;0.80;99.90
17687;DHT22;8962;52.538;13.266;2022-11-20T05:59:37;0.80;99.90
17687;DHT22;8962;52.538;13.266;2022-11-20T06:02:06;0.80;99.90
17687;DHT22;8962;52.538;13.266;2022-11-20T06:04:33;0.80;99.90
17687;DHT22;8962;52.538;13.266;2022-11-20T06:07:00;0.80;99.90
17687;DHT22;8962;52.538;13.266;2022-11-20T06:09:27;0.90;99.90
17687;DHT22;8962;52.538;13.266;2022-11-20T06:11:54;0.80;99.90
17687;DHT22;8962;52.538;13.266;2022-11-20T06:14:21;0.80;99.90
17687;DHT22;8962;52.538;13.266;2022-11-20T06:16:48;0.80;99.90
17687;DHT22;8962;52.538;13.266;2022-11-20T06:19:17;0.90;99.90
17687;DHT22;8962;52.538;13.266;2022-11-20T06:21:44;0.90;99.90
17687;DHT22;8962;52.538;13.266;2022-11-20T06:24:11;1.00;99.90
17687;DHT22;8962;52.538;13.266;2022-11-20T06:26:38;1.00;99.90
17687;DHT22;8962;52.538;13.266;2022-11-20T06:29:05;1.10;99.90
17687;DHT22;8962;52.538;13.266;2022-11-20T06:31:33;1.00;99.90
17687;DHT22;8962;52.538;13.266;2022-11-20T06:34:03;1.00;99.90
17687;DHT22;8962;52.538;13.266;2022-11-20T06:36:34;1.00;99.90
17687;DHT22;8962;52.538;13.266;2022-11-20T06:39:01;1.10;99.90
17687;DHT22;8962;52.538;13.266;2022-11-20T06:41:29;1.00;99.90
17687;DHT22;8962;52.538;13.266;2022-11-20T06:43:57;1.00;99.90
17687;DHT22;8962;52.538;13.266;2022-11-20T06:46:24;1.10;99.90
17687;DHT22;8962;52.538;13.266;2022-11-20T06:48:51;1.00;99.90
17687;DHT22;8962;52.538;13.266;2022-11-20T06:51:19;1.00;99.90
17687;DHT22;8962;52.538;13.266;2022-11-20T06:53:49;1.10;99.90
17687;DHT22;8962;52.538;13.266;2022-11-20T06:56:16;1.10;99.90
17687;DHT22;8962;52.538;13.266;2022-11-20T06:58:43;1.10;99.90
17687;DHT22;8962;52.538;13.266;2022-11-20T07:01:11;1.10;99.90
17687;DHT22;8962;52.538;13.266;2022-11-20T07:03:40;1.00;99.90
17687;DHT22;8962;52.538;13.266;2022-11-20T07:06:09;1.10;99.90
17687;DHT22;8962;52.538;13.266;2022-11-20T07:08:36;1.10;99.90
17687;DHT22;8962;52.538;13.266;2022-11-20T07:11:06;1.00;99.90
17687;DHT22;8962;52.538;13.266;2022-11-20T07:13:33;1.00;99.90
17687;DHT22;8962;52.538;13.266;2022-11-20T07:16:01;1.00;99.90
17687;DHT22;8962;52.538;13.266;2022-11-20T07:18:28;1.00;99.90
17687;DHT22;8962;52.538;13.266;2022-11-20T07:21:00;1.00;99.90
17687;DHT22;8962;52.538;13.266;2022-11-20T07:23:27;1.10;99.90
17687;DHT22;8962;52.538;13.266;2022-11-20T07:25:54;1.20;99.90
17687;DHT22;8962;52.538;13.266;2022-11-20T07:28:24;1.20;99.90
17687;DHT22;8962;52.538;13.266;2022-11-20T07:30:52;1.20;99.90
17687;DHT22;8962;52.538;13.266;2022-11-20T07:33:20;1.30;99.90
17687;DHT22;8962;52.538;13.266;2022-11-20T07:35:48;1.20;99.90
17687;DHT22;8962;52.538;13.266;2022-11-20T07:38:15;1.20;99.90
17687;DHT22;8962;52.538;13.266;2022-11-20T07:40:47;1.20;99.90
17687;DHT22;8962;52.538;13.266;2022-11-20T07:43:14;1.20;99.90
17687;DHT22;8962;52.538;13.266;2022-11-20T07:45:43;1.20;99.90
17687;DHT22;8962;52.538;13.266;2022-11-20T07:48:11;1.20;99.90
17687;DHT22;8962;52.538;13.266;2022-11-20T07:50:39;1.30;99.90
17687;DHT22;8962;52.538;13.266;2022-11-20T07:53:07;1.30;99.90
17687;DHT22;8962;52.538;13.266;2022-11-20T07:55:35;1.20;99.90
17687;DHT22;8962;52.538;13.266;2022-11-20T07:58:04;1.30;99.90
17687;DHT22;8962;52.538;13.266;2022-11-20T08:00:32;1.30;99.90
17687;DHT22;8962;52.538;13.266;2022-11-20T08:03:03;1.40;99.90
17687;DHT22;8962;52.538;13.266;2022-11-20T08:05:30;1.50;99.90
17687;DHT22;8962;52.538;13.266;2022-11-20T08:07:58;1.50;99.90
17687;DHT22;8962;52.538;13.266;2022-11-20T08:10:26;1.50;99.90
17687;DHT22;8962;52.538;13.266;2022-11-20T08:12:54;1.50;99.90
17687;DHT22;8962;52.538;13.266;2022-11-20T08:15:40;1.50;99.90
17687;DHT22;8962;52.538;13.266;2022-11-20T08:18:11;1.50;99.90
17687;DHT22;8962;52.538;13.266;2022-11-20T08:20:38;1.50;99.90
17687;DHT22;8962;52.538;13.266;2022-11-20T08:23:07;1.40;99.90
17687;DHT22;8962;52.538;13.266;2022-11-20T08:25:37;1.50;99.90
17687;DHT22;8962;52.538;13.266;2022-11-20T08:28:05;1.60;99.90
17687;DHT22;8962;52.538;13.266;2022-11-20T08:30:33;1.50;99.90
17687;DHT22;8962;52.538;13.266;2022-11-20T08:33:02;1.50;99.90
17687;DHT22;8962;52.538;13.266;2022-11-20T08:35:34;1.30;99.90
17687;DHT22;8962;52.538;13.266;2022-11-20T08:38:01;1.40;99.90
17687;DHT22;8962;52.538;13.266;2022-11-20T08:40:29;1.40;99.90
17687;DHT22;8962;52.538;13.266;2022-11-20T08:42:56;1.40;99.90
17687;DHT22;8962;52.538;13.266;2022-11-20T08:45:23;1.50;99.90
17687;DHT22;8962;52.538;13.266;2022-11-20T08:47:52;1.60;99.90
17687;DHT22;8962;52.538;13.266;2022-11-20T08:50:20;1.60;99.90
17687;DHT22;8962;52.538;13.266;2022-11-20T08:52:51;1.70;99.90
17687;DHT22;8962;52.538;13.266;2022-11-20T08:55:19;1.80;99.90
17687;DHT22;8962;52.538;13.266;2022-11-20T08:57:46;1.90;99.90
17687;DHT22;8962;52.538;13.266;2022-11-20T09:00:15;1.90;99.90
17687;DHT22;8962;52.538;13.266;2022-11-20T09:02:43;1.90;99.90
17687;DHT22;8962;52.538;13.266;2022-11-20T09:05:10;1.80;99.90
17687;DHT22;8962;52.538;13.266;2022-11-20T09:07:40;1.80;99.90
17687;DHT22;8962;52.538;13.266;2022-11-20T09:10:11;1.80;99.90
17687;DHT22;8962;52.538;13.266;2022-11-20T09:12:38;1.90;99.90
17687;DHT22;8962;52.538;13.266;2022-11-20T09:15:06;1.90;99.90
17687;DHT22;8962;52.538;13.266;2022-11-20T09:17:35;1.90;99.90
17687;DHT22;8962;52.538;13.266;2022-11-20T09:20:06;1.80;99.90
17687;DHT22;8962;52.538;13.266;2022-11-20T09:22:35;1.70;99.90
17687;DHT22;8962;52.538;13.266;2022-11-20T09:25:06;1.70;99.90
17687;DHT22;8962;52.538;13.266;2022-11-20T09:27:34;1.70;99.90
17687;DHT22;8962;52.538;13.266;2022-11-20T09:30:02;1.80;99.90
17687;DHT22;8962;52.538;13.266;2022-11-20T09:32:29;1.90;99.90
17687;DHT22;8962;52.538;13.266;2022-11-20T09:34:57;1.90;99.90
17687;DHT22;8962;52.538;13.266;2022-11-20T09:37:24;2.00;99.90
17687;DHT22;8962;52.538;13.266;2022-11-20T09:39:51;2.10;99.90
17687;DHT22;8962;52.538;13.266;2022-11-20T09:42:28;2.20;99.90
17687;DHT22;8962;52.538;13.266;2022-11-20T09:45:23;2.20;99.90
17687;DHT22;8962;52.538;13.266;2022-11-20T09:48:14;2.40;99.90
17687;DHT22;8962;52.538;13.266;2022-11-20T09:50:47;2.20;99.90
17687;DHT22;8962;52.538;13.266;2022-11-20T09:53:24;2.20;99.90
17687;DHT22;8962;52.538;13.266;2022-11-20T09:55:54;2.40;99.90
17687;DHT22;8962;52.538;13.266;2022-11-20T09:58:28;2.50;99.90
17687;DHT22;8962;52.538;13.266;2022-11-20T10:01:10;2.30;99.90
17687;DHT22;8962;52.538;13.266;2022-11-20T10:03:45;2.40;99.90
17687;DHT22;8962;52.538;13.266;2022-11-20T10:06:19;2.60;99.90
17687;DHT22;8962;52.538;13.266;2022-11-20T10:08:54;2.60;99.90
17687;DHT22;8962;52.538;13.266;2022-11-20T10:11:30;2.50;99.90
17687;DHT22;8962;52.538;13.266;2022-11-20T10:14:06;2.50;99.90
17687;DHT22;8962;52.538;13.266;2022-11-20T10:16:45;2.40;99.90
17687;DHT22;8962;52.538;13.266;2022-11-20T10:19:30;2.50;99.90
17687;DHT22;8962;52.538;13.266;2022-11-20T10:22:09;2.40;99.90
17687;DHT22;8962;52.538;13.266;2022-11-20T10:24:51;2.60;99.90
17687;DHT22;8962;52.538;13.266;2022-11-20T10:27:40;2.60;99.90
17687;DHT22;8962;52.538;13.266;2022-11-20T10:30:14;2.60;99.90
17687;DHT22;8962;52.538;13.266;2022-11-20T10:32:45;2.60;99.90
17687;DHT22;8962;52.538;13.266;2022-11-20T10:35:20;2.50;99.90
17687;DHT22;8962;52.538;13.266;2022-11-20T10:37:51;2.50;99.90
17687;DHT22;8962;52.538;13.266;2022-11-20T10:40:25;2.60;99.90
17687;DHT22;8962;52.538;13.266;2022-11-20T10:42:56;2.80;99.90
17687;DHT22;8962;52.538;13.266;2022-11-20T10:45:48;2.70;99.90
17687;DHT22;8962;52.538;13.266;2022-11-20T10:48:22;2.80;99.90
17687;DHT22;8962;52.538;13.266;2022-11-20T10:51:07;2.80;99.90
17687;DHT22;8962;52.538;13.266;2022-11-20T10:54:02;3.10;99.90
17687;DHT22;8962;52.538;13.266;2022-11-20T10:56:34;3.20;99.90
17687;DHT22;8962;52.538;13.266;2022-11-20T11:02:18;3.70;99.90
17687;DHT22;8962;52.538;13.266;2022-11-20T11:04:49;3.70;99.90
17687;DHT22;8962;52.538;13.266;2022-11-20T11:07:21;3.50;99.90
17687;DHT22;8962;52.538;13.266;2022-11-20T11:09:51;3.40;99.90
17687;DHT22;8962;52.538;13.266;2022-11-20T11:12:20;3.30;99.90
17687;DHT22;8962;52.538;13.266;2022-11-20T11:14:50;3.40;99.90
17687;DHT22;8962;52.538;13.266;2022-11-20T11:17:32;3.40;99.90
17687;DHT22;8962;52.538;13.266;2022-11-20T11:20:05;3.60;99.90
17687;DHT22;8962;52.538;13.266;2022-11-20T11:22:34;3.50;99.90
17687;DHT22;8962;52.538;13.266;2022-11-20T11:25:01;3.60;99.90
17687;DHT22;8962;52.538;13.266;2022-11-20T11:27:29;3.50;99.90
17687;DHT22;8962;52.538;13.266;2022-11-20T11:30:12;3.40;99.90
17687;DHT22;8962;52.538;13.266;2022-11-20T11:32:39;3.00;99.90
17687;DHT22;8962;52.538;13.266;2022-11-20T11:35:21;2.90;99.90
17687;DHT22;8962;52.538;13.266;2022-11-20T11:37:48;2.50;99.90
17687;DHT22;8962;52.538;13.266;2022-11-20T11:40:18;2.60;99.90
17687;DHT22;8962;52.538;13.266;2022-11-20T11:42:51;2.20;99.90
17687;DHT22;8962;52.538;13.266;2022-11-20T11:45:20;2.10;99.90
17687;DHT22;8962;52.538;13.266;2022-11-20T11:47:48;2.20;99.90
17687;DHT22;8962;52.538;13.266;2022-11-20T11:50:22;2.10;99.90
17687;DHT22;8962;52.538;13.266;2022-11-20T11:53:03;2.10;99.90
17687;DHT22;8962;52.538;13.266;2022-11-20T11:55:36;2.20;99.90
17687;DHT22;8962;52.538;13.266;2022-11-20T11:58:13;2.10;99.90
17687;DHT22;8962;52.538;13.266;2022-11-20T12:00:48;2.00;99.90
17687;DHT22;8962;52.538;13.266;2022-11-20T12:03:20;2.10;99.90
17687;DHT22;8962;52.538;13.266;2022-11-20T12:05:57;2.30;99.90
17687;DHT22;8962;52.538;13.266;2022-11-20T12:08:27;2.30;99.90
17687;DHT22;8962;52.538;13.266;2022-11-20T12:11:03;2.40;99.90
17687;DHT22;8962;52.538;13.266;2022-11-20T12:13:44;2.50;99.90
17687;DHT22;8962;52.538;13.266;2022-11-20T12:16:14;2.60;99.90
17687;DHT22;8962;52.538;13.266;2022-11-20T12:18:42;2.60;99.90
17687;DHT22;8962;52.538;13.266;2022-11-20T12:21:19;2.80;99.90
17687;DHT22;8962;52.538;13.266;2022-11-20T12:24:15;2.80;99.90
17687;DHT22;8962;52.538;13.266;2022-11-20T12:27:04;2.80;99.90
17687;DHT22;8962;52.538;13.266;2022-11-20T12:29:46;2.90;99.90
17687;DHT22;8962;52.538;13.266;2022-11-20T12:32:37;2.80;99.90
17687;DHT22;8962;52.538;13.266;2022-11-20T12:35:24;2.80;99.90
17687;DHT22;8962;52.538;13.266;2022-11-20T12:38:12;2.90;99.90
17687;DHT22;8962;52.538;13.266;2022-11-20T12:40:53;2.70;99.90
17687;DHT22;8962;52.538;13.266;2022-11-20T12:43:24;2.60;99.90
17687;DHT22;8962;52.538;13.266;2022-11-20T12:46:22;2.70;99.90
17687;DHT22;8962;52.538;13.266;2022-11-20T12:49:21;2.70;99.90
17687;DHT22;8962;52.538;13.266;2022-11-20T12:52:04;2.80;99.90
17687;DHT22;8962;52.538;13.266;2022-11-20T12:55:11;2.60;99.90
17687;DHT22;8962;52.538;13.266;2022-11-20T12:57:46;2.30;99.90
17687;DHT22;8962;52.538;13.266;2022-11-20T13:00:18;2.30;99.90
17687;DHT22;8962;52.538;13.266;2022-11-20T13:03:13;2.30;99.90
17687;DHT22;8962;52.538;13.266;2022-11-20T13:05:51;2.30;99.90
17687;DHT22;8962;52.538;13.266;2022-11-20T13:08:24;2.30;99.90
17687;DHT22;8962;52.538;13.266;2022-11-20T13:10:59;2.40;99.90
17687;DHT22;8962;52.538;13.266;2022-11-20T13:13:42;2.70;99.90
17687;DHT22;8962;52.538;13.266;2022-11-20T13:16:15;2.80;99.90
17687;DHT22;8962;52.538;13.266;2022-11-20T13:18:44;2.90;99.90
17687;DHT22;8962;52.538;13.266;2022-11-20T13:21:16;3.00;99.90
17687;DHT22;8962;52.538;13.266;2022-11-20T13:23:44;3.00;99.90
17687;DHT22;8962;52.538;13.266;2022-11-20T13:26:20;3.00;99.90
17687;DHT22;8962;52.538;13.266;2022-11-20T13:28:59;3.10;99.90
17687;DHT22;8962;52.538;13.266;2022-11-20T13:31:31;3.10;99.90
17687;DHT22;8962;52.538;13.266;2022-11-20T13:33:59;2.90;99.90
17687;DHT22;8962;52.538;13.266;2022-11-20T13:36:29;2.70;99.90
17687;DHT22;8962;52.538;13.266;2022-11-20T13:38:59;2.20;99.90
17687;DHT22;8962;52.538;13.266;2022-11-20T13:41:30;2.20;99.90
17687;DHT22;8962;52.538;13.266;2022-11-20T13:44:06;2.20;99.90
17687;DHT22;8962;52.538;13.266;2022-11-20T13:46:38;2.20;99.90
17687;DHT22;8962;52.538;13.266;2022-11-20T13:49:08;2.10;99.90
17687;DHT22;8962;52.538;13.266;2022-11-20T13:51:42;2.00;99.90
17687;DHT22;8962;52.538;13.266;2022-11-20T13:57:27;2.10;99.90
17687;DHT22;8962;52.538;13.266;2022-11-20T14:00:04;2.00;99.90
17687;DHT22;8962;52.538;13.266;2022-11-20T14:02:36;2.00;99.90
17687;DHT22;8962;52.538;13.266;2022-11-20T14:05:04;2.00;99.90
17687;DHT22;8962;52.538;13.266;2022-11-20T14:07:37;2.00;99.90
17687;DHT22;8962;52.538;13.266;2022-11-20T14:10:18;2.00;99.90
17687;DHT22;8962;52.538;13.266;2022-11-20T14:12:47;2.00;99.90
17687;DHT22;8962;52.538;13.266;2022-11-20T14:15:27;2.00;99.90
17687;DHT22;8962;52.538;13.266;2022-11-20T14:17:54;1.90;99.90
17687;DHT22;8962;52.538;13.266;2022-11-20T14:20:24;1.90;99.90
17687;DHT22;8962;52.538;13.266;2022-11-20T14:22:53;1.90;99.90
17687;DHT22;8962;52.538;13.266;2022-11-20T14:25:21;1.80;99.90
17687;DHT22;8962;52.538;13.266;2022-11-20T14:27:55;1.80;99.90
17687;DHT22;8962;52.538;13.266;2022-11-20T14:30:24;1.80;99.90
17687;DHT22;8962;52.538;13.266;2022-11-20T14:32:55;1.80;99.90
17687;DHT22;8962;52.538;13.266;2022-11-20T14:35:25;1.70;99.90
17687;DHT22;8962;52.538;13.266;2022-11-20T14:37:53;1.80;99.90
17687;DHT22;8962;52.538;13.266;2022-11-20T14:40:29;1.70;99.90
17687;DHT22;8962;52.538;13.266;2022-11-20T14:42:59;1.80;99.90
17687;DHT22;8962;52.538;13.266;2022-11-20T14:45:26;1.80;99.90
17687;DHT22;8962;52.538;13.266;2022-11-20T14:47:56;1.70;99.90
17687;DHT22;8962;52.538;13.266;2022-11-20T14:50:26;1.80;99.90
17687;DHT22;8962;52.538;13.266;2022-11-20T14:52:55;1.70;99.90
17687;DHT22;8962;52.538;13.266;2022-11-20T14:55:29;1.80;99.90
17687;DHT22;8962;52.538;13.266;2022-11-20T14:58:01;1.80;99.90
17687;DHT22;8962;52.538;13.266;2022-11-20T15:00:31;1.80;99.90
17687;DHT22;8962;52.538;13.266;2022-11-20T15:02:58;1.80;99.90
17687;DHT22;8962;52.538;13.266;2022-11-20T15:08:12;1.80;99.90
17687;DHT22;8962;52.538;13.266;2022-11-20T15:10:45;1.70;99.90
17687;DHT22;8962;52.538;13.266;2022-11-20T15:13:20;1.80;99.90
17687;DHT22;8962;52.538;13.266;2022-11-20T15:15:52;1.80;99.90
17687;DHT22;8962;52.538;13.266;2022-11-20T15:18:22;1.70;99.90
17687;DHT22;8962;52.538;13.266;2022-11-20T15:20:50;1.70;99.90
17687;DHT22;8962;52.538;13.266;2022-11-20T15:23:19;1.70;99.90
17687;DHT22;8962;52.538;13.266;2022-11-20T15:25:47;1.80;99.90
17687;DHT22;8962;52.538;13.266;2022-11-20T15:28:21;1.70;99.90
17687;DHT22;8962;52.538;13.266;2022-11-20T15:30:51;1.70;99.90
17687;DHT22;8962;52.538;13.266;2022-11-20T15:33:18;1.80;99.90
17687;DHT22;8962;52.538;13.266;2022-11-20T15:35:47;1.80;99.90
17687;DHT22;8962;52.538;13.266;2022-11-20T15:38:14;1.80;99.90
17687;DHT22;8962;52.538;13.266;2022-11-20T15:40:41;1.80;99.90
17687;DHT22;8962;52.538;13.266;2022-11-20T15:43:08;1.80;99.90
17687;DHT22;8962;52.538;13.266;2022-11-20T15:45:41;1.80;99.90
17687;DHT22;8962;52.538;13.266;2022-11-20T15:48:13;1.70;99.90
17687;DHT22;8962;52.538;13.266;2022-11-20T15:50:49;1.60;99.90
17687;DHT22;8962;52.538;13.266;2022-11-20T15:53:17;1.50;99.90
17687;DHT22;8962;52.538;13.266;2022-11-20T15:55:45;1.40;99.90
17687;DHT22;8962;52.538;13.266;2022-11-20T15:58:12;1.40;99.90
17687;DHT22;8962;52.538;13.266;2022-11-20T16:00:40;1.20;99.90
17687;DHT22;8962;52.538;13.266;2022-11-20T16:03:09;1.10;99.90
17687;DHT22;8962;52.538;13.266;2022-11-20T16:05:38;1.00;99.90
17687;DHT22;8962;52.538;13.266;2022-11-20T16:08:05;0.90;99.90
17687;DHT22;8962;52.538;13.266;2022-11-20T16:10:32;0.90;99.90
17687;DHT22;8962;52.538;13.266;2022-11-20T16:13:00;0.80;99.90
17687;DHT22;8962;52.538;13.266;2022-11-20T16:15:50;0.70;99.90
17687;DHT22;8962;52.538;13.266;2022-11-20T16:18:19;0.70;99.90